Alexander — SX8191 — position and weather

sailwx.info

Track history (hours):
 
Tides and Currents Weather Stations Pressure Air Temp Water Temp Dewpoint Dewpoint Depression Visibility Wind Speed Wind Dir Waves Ship Positions

Alexander

Last reported at 2017-Sep-26 22:01 UTC. Time now 2017-Sep-26 22:04 UTC.
Position N 37°06' E 025°22'.

Length 40 m; draft 2.4 m.

Type: Passenger vessel. MMSI: 237133300.

Date/timePositionNaut miles runAvg speedWind from/ knotsBaromVisibWave heightAir tempDewpointWater temp
2017-Sep-26 22:01N 37°06' E 025°22'0 0.0
2017-Sep-26 21:31N 37°06' E 025°22'0 0.0
2017-Sep-26 21:00N 37°06' E 025°22'0 0.0
2017-Sep-26 20:31N 37°06' E 025°22'0 0.0
2017-Sep-26 20:00N 37°06' E 025°22'0 0.0
2017-Sep-26 19:31N 37°06' E 025°22'0 0.0
2017-Sep-26 19:01N 37°06' E 025°22'0 0.0
2017-Sep-26 18:31N 37°06' E 025°22'0 0.0
2017-Sep-26 18:01N 37°06' E 025°22'0 0.0
2017-Sep-26 17:30N 37°06' E 025°22'0 0.0
2017-Sep-26 17:01N 37°06' E 025°22'4 7.1
2017-Sep-26 16:30N 37°04' E 025°19'5 0.5
2017-Sep-26 05:41N 36°59' E 025°16'315.1
2017-Sep-26 05:31N 37°02' E 025°16'714.0
2017-Sep-26 05:01N 37°06' E 025°22'0 0.0
2017-Sep-26 04:31N 37°06' E 025°22'0 0.0
2017-Sep-26 04:01N 37°06' E 025°22'0 0.0
2017-Sep-26 03:31N 37°06' E 025°22'0 0.0
2017-Sep-26 03:01N 37°06' E 025°22'0 0.0
2017-Sep-26 02:31N 37°06' E 025°22'0 0.0
2017-Sep-26 02:01N 37°06' E 025°22'0 0.0
2017-Sep-26 01:31N 37°06' E 025°22'0 0.0
2017-Sep-26 01:01N 37°06' E 025°22'0 0.0
2017-Sep-26 00:31N 37°06' E 025°22'0 0.0
2017-Sep-26 00:01N 37°06' E 025°22'0 0.0
2017-Sep-25 23:31N 37°06' E 025°22'0 0.0
2017-Sep-25 23:01N 37°06' E 025°22'0 0.0
2017-Sep-25 22:31N 37°06' E 025°22'0 0.0
2017-Sep-25 22:01N 37°06' E 025°22'0 0.0
2017-Sep-25 21:31N 37°06' E 025°22'0 0.0
2017-Sep-25 21:01N 37°06' E 025°22'0 0.0
2017-Sep-25 20:31N 37°06' E 025°22'0 0.0
2017-Sep-25 20:01N 37°06' E 025°22'0 0.0
2017-Sep-25 19:31N 37°06' E 025°22'0 0.0
2017-Sep-25 19:01N 37°06' E 025°22'0 0.0
2017-Sep-25 18:31N 37°06' E 025°22'0 0.0
2017-Sep-25 18:01N 37°06' E 025°22'0 0.0
2017-Sep-25 17:31N 37°06' E 025°22'0 0.0
2017-Sep-25 17:01N 37°06' E 025°22'0 0.0
2017-Sep-25 16:31N 37°06' E 025°22'0 0.0
2017-Sep-25 16:01N 37°06' E 025°22'510.0
2017-Sep-25 15:31N 37°09' E 025°17'2 4.6
2017-Sep-25 15:01N 37°10' E 025°15'917.6
2017-Sep-25 14:31N 37°19' E 025°16'917.1
2017-Sep-25 14:01N 37°27' E 025°19'0 0.8
2017-Sep-25 13:30N 37°27' E 025°20'0 0.0
2017-Sep-25 13:01N 37°27' E 025°20'0 0.0
2017-Sep-25 12:31N 37°27' E 025°20'0 0.0
2017-Sep-25 12:01N 37°27' E 025°20'0 0.0
2017-Sep-25 11:30N 37°27' E 025°20'0 0.0
2017-Sep-25 11:01N 37°27' E 025°20'4 8.7
2017-Sep-25 10:31N 37°24' E 025°16'0 0.0
2017-Sep-25 10:01N 37°24' E 025°16'0 0.0
2017-Sep-25 09:30N 37°24' E 025°16'0 0.0
2017-Sep-25 09:01N 37°24' E 025°16'1 1.0
2017-Sep-25 08:31N 37°24' E 025°16'3 6.8
2017-Sep-25 08:01N 37°27' E 025°19'611.4
2017-Sep-25 07:31N 37°22' E 025°15'918.6
2017-Sep-25 07:00N 37°12' E 025°15'5 9.0
2017-Sep-25 06:31N 37°08' E 025°14'713.2
2017-Sep-25 06:01N 37°06' E 025°22'0 0.0
2017-Sep-25 05:31N 37°06' E 025°22'0 0.0
2017-Sep-25 05:01N 37°06' E 025°22'0 0.0
2017-Sep-25 04:31N 37°06' E 025°22'0 0.0
2017-Sep-25 04:01N 37°06' E 025°22'0 0.0
2017-Sep-25 03:31N 37°06' E 025°22'0 0.0
2017-Sep-25 03:01N 37°06' E 025°22'0 0.0
2017-Sep-25 02:31N 37°06' E 025°22'0 0.0
2017-Sep-25 02:01N 37°06' E 025°22'0 0.0
2017-Sep-25 01:31N 37°06' E 025°22'0 0.0
2017-Sep-25 01:01N 37°06' E 025°22'0 0.0
2017-Sep-25 00:31N 37°06' E 025°22'0 0.0
2017-Sep-25 00:01N 37°06' E 025°22'0 0.0
2017-Sep-24 23:31N 37°06' E 025°22'0 0.0
2017-Sep-24 23:01N 37°06' E 025°22'0 0.0
2017-Sep-24 22:27N 37°06' E 025°22'0 0.0
2017-Sep-24 22:01N 37°06' E 025°22'0 0.0
2017-Sep-24 21:31N 37°06' E 025°22'0 0.0
2017-Sep-24 21:01N 37°06' E 025°22'0 0.0
2017-Sep-24 20:31N 37°06' E 025°22'0 0.0
2017-Sep-24 20:01N 37°06' E 025°22'0 0.0
2017-Sep-24 19:31N 37°06' E 025°22'0 0.0
2017-Sep-24 19:01N 37°06' E 025°22'0 0.0
2017-Sep-24 18:31N 37°06' E 025°22'0 0.0
2017-Sep-24 18:01N 37°06' E 025°22'0 0.0
2017-Sep-24 17:31N 37°06' E 025°22'0 0.0
2017-Sep-24 17:01N 37°06' E 025°22'0 0.0
2017-Sep-24 16:31N 37°06' E 025°22'0 0.0
2017-Sep-24 16:01N 37°06' E 025°22'0 0.0
2017-Sep-24 15:31N 37°06' E 025°22'0 0.0
2017-Sep-24 15:01N 37°06' E 025°22'0 0.0
2017-Sep-24 14:30N 37°06' E 025°22'0 0.0
2017-Sep-24 14:01N 37°06' E 025°22'0 0.0
2017-Sep-24 13:30N 37°06' E 025°22'0 0.0
2017-Sep-24 13:01N 37°06' E 025°22'0 0.0
2017-Sep-24 12:31N 37°06' E 025°22'0 0.0
2017-Sep-24 12:01N 37°06' E 025°22'0 0.0
2017-Sep-24 11:31N 37°06' E 025°22'0 0.0
2017-Sep-24 11:01N 37°06' E 025°22'0 0.0
2017-Sep-24 10:31N 37°06' E 025°22'0 0.0
2017-Sep-24 09:13N 37°06' E 025°22'0 0.0
2017-Sep-24 09:01N 37°06' E 025°22'0 0.0
2017-Sep-24 08:31N 37°06' E 025°22'0 0.0
2017-Sep-24 08:01N 37°06' E 025°22'0 0.0
2017-Sep-24 07:31N 37°06' E 025°22'0 0.0
2017-Sep-24 07:01N 37°06' E 025°22'0 0.0
2017-Sep-24 06:31N 37°06' E 025°22'0 0.0
2017-Sep-24 06:01N 37°06' E 025°22'0 0.0
2017-Sep-24 05:31N 37°06' E 025°22'0 0.0
2017-Sep-24 05:00N 37°06' E 025°22'0 0.0
2017-Sep-24 04:31N 37°06' E 025°22'0 0.0
2017-Sep-24 04:01N 37°06' E 025°22'0 0.0
2017-Sep-24 03:31N 37°06' E 025°22'0 0.0
2017-Sep-24 03:01N 37°06' E 025°22'0 0.0
2017-Sep-24 02:31N 37°06' E 025°22'0 0.0
2017-Sep-24 02:01N 37°06' E 025°22'0 0.0
2017-Sep-24 01:31N 37°06' E 025°22'0 0.0
2017-Sep-24 01:01N 37°06' E 025°22'0 0.0
2017-Sep-24 00:31N 37°06' E 025°22'0 0.0
2017-Sep-24 00:01N 37°06' E 025°22'0 0.0
2017-Sep-23 23:31N 37°06' E 025°22'0 0.0
2017-Sep-23 23:01N 37°06' E 025°22'0 0.0
2017-Sep-23 22:31N 37°06' E 025°22'0 0.0
2017-Sep-23 22:01N 37°06' E 025°22'0 0.0
2017-Sep-23 21:31N 37°06' E 025°22'0 0.0
2017-Sep-23 21:01N 37°06' E 025°22'0 0.0
2017-Sep-23 20:31N 37°06' E 025°22'0 0.0
2017-Sep-23 20:01N 37°06' E 025°22'0 0.0
2017-Sep-22 02:01N 37°06' E 025°22'0 0.0
2017-Sep-22 01:31N 37°06' E 025°22'0 0.0
2017-Sep-22 01:01N 37°06' E 025°22'0 0.0
2017-Sep-22 00:31N 37°06' E 025°22'0 0.0
2017-Sep-22 00:01N 37°06' E 025°22'0 0.0
2017-Sep-21 23:31N 37°06' E 025°22'0 0.0
2017-Sep-21 23:01N 37°06' E 025°22'0 0.0
2017-Sep-21 22:31N 37°06' E 025°22'0 0.0
2017-Sep-21 22:01N 37°06' E 025°22'0 0.0
2017-Sep-21 21:31N 37°06' E 025°22'0 0.0
2017-Sep-21 21:00N 37°06' E 025°22'0 0.0
2017-Sep-21 20:31N 37°06' E 025°22'0 0.0
2017-Sep-21 20:01N 37°06' E 025°22'0 0.0
2017-Sep-21 19:31N 37°06' E 025°22'0 0.0
2017-Sep-21 19:01N 37°06' E 025°22'0 0.0
2017-Sep-21 18:31N 37°06' E 025°22'0 0.0
2017-Sep-21 18:00N 37°06' E 025°22'0 0.0
2017-Sep-21 17:31N 37°06' E 025°22'0 0.0
2017-Sep-21 17:01N 37°06' E 025°22'0 0.0
2017-Sep-21 16:31N 37°06' E 025°22'0 0.0
2017-Sep-21 16:01N 37°06' E 025°22'0 0.0
2017-Sep-21 15:31N 37°06' E 025°22'0 0.0
2017-Sep-21 15:01N 37°06' E 025°22'0 0.0
2017-Sep-21 14:31N 37°06' E 025°22'0 0.0
2017-Sep-21 14:01N 37°06' E 025°22'0 0.0
2017-Sep-21 13:31N 37°06' E 025°22'0 0.0
2017-Sep-21 13:01N 37°06' E 025°22'0 0.0
2017-Sep-21 12:31N 37°06' E 025°22'0 0.0
2017-Sep-21 12:00N 37°06' E 025°22'0 0.0
2017-Sep-21 11:31N 37°06' E 025°22'0 0.0
2017-Sep-21 11:01N 37°06' E 025°22'0 0.0
2017-Sep-21 10:31N 37°06' E 025°22'0 0.0
2017-Sep-21 10:01N 37°06' E 025°22'0 0.0
2017-Sep-21 09:31N 37°06' E 025°22'0 0.0
2017-Sep-21 09:01N 37°06' E 025°22'0 0.0
2017-Sep-21 08:31N 37°06' E 025°22'0 0.0
2017-Sep-21 08:01N 37°06' E 025°22'0 0.0
2017-Sep-21 07:30N 37°06' E 025°22'0 0.0
2017-Sep-21 07:01N 37°06' E 025°22'0 0.0
2017-Sep-21 06:31N 37°06' E 025°22'0 0.0
2017-Sep-21 06:01N 37°06' E 025°22'0 0.0
2017-Sep-21 05:31N 37°06' E 025°22'0 0.0
2017-Sep-21 05:01N 37°06' E 025°22'0 0.0
2017-Sep-21 04:31N 37°06' E 025°22'0 0.0
2017-Sep-21 04:01N 37°06' E 025°22'0 0.0
2017-Sep-21 03:31N 37°06' E 025°22'0 0.0
2017-Sep-21 03:01N 37°06' E 025°22'0 0.0
2017-Sep-21 02:31N 37°06' E 025°22'0 0.0
2017-Sep-21 02:01N 37°06' E 025°22'0 0.0
2017-Sep-21 01:31N 37°06' E 025°22'0 0.0
2017-Sep-21 01:01N 37°06' E 025°22'0 0.0
2017-Sep-21 00:31N 37°06' E 025°22'0 0.0
2017-Sep-21 00:01N 37°06' E 025°22'0 0.0
2017-Sep-20 23:31N 37°06' E 025°22'0 0.0
2017-Sep-20 23:00N 37°06' E 025°22'0 0.0
2017-Sep-20 22:31N 37°06' E 025°22'0 0.0
2017-Sep-20 22:01N 37°06' E 025°22'0 0.0
2017-Sep-20 21:31N 37°06' E 025°22'0 0.0
2017-Sep-20 21:01N 37°06' E 025°22'0 0.0
2017-Sep-20 20:31N 37°06' E 025°22'0 0.0
2017-Sep-20 20:01N 37°06' E 025°22'0 0.0
2017-Sep-20 19:31N 37°06' E 025°22'0 0.0
2017-Sep-20 19:01N 37°06' E 025°22'0 0.0
2017-Sep-20 18:31N 37°06' E 025°22'0 0.0
2017-Sep-20 18:01N 37°06' E 025°22'0 0.0
2017-Sep-20 17:31N 37°06' E 025°22'0 0.0
2017-Sep-20 17:01N 37°06' E 025°22'0 0.0
2017-Sep-20 16:31N 37°06' E 025°22'0 0.0
2017-Sep-20 16:01N 37°06' E 025°22'5 9.5
2017-Sep-20 15:31N 37°09' E 025°18'2 5.0
2017-Sep-20 15:00N 37°09' E 025°15'18 6.0
2017-Sep-20 11:59N 37°27' E 025°20'0 0.0
2017-Sep-20 11:30N 37°27' E 025°20'0 0.0
2017-Sep-20 11:00N 37°27' E 025°20'4 8.7
2017-Sep-20 10:31N 37°24' E 025°16'0 0.0
2017-Sep-20 10:01N 37°24' E 025°16'0 0.2
2017-Sep-20 09:31N 37°24' E 025°16'4 8.7
2017-Sep-20 09:00N 37°27' E 025°20'0 0.1
2017-Sep-20 08:30N 37°27' E 025°20'2 4.7
2017-Sep-20 08:01N 37°26' E 025°17'4 8.7
2017-Sep-20 07:31N 37°22' E 025°16'918.2
2017-Sep-20 07:01N 37°12' E 025°15'4 8.3
2017-Sep-20 06:30N 37°08' E 025°15'613.0
2017-Sep-20 06:01N 37°06' E 025°22'0 0.0
2017-Sep-20 05:30N 37°06' E 025°22'0 0.0
2017-Sep-20 05:01N 37°06' E 025°22'0 0.0
2017-Sep-20 04:31N 37°06' E 025°22'0 0.0
2017-Sep-20 04:01N 37°06' E 025°22'0 0.0
2017-Sep-20 03:31N 37°06' E 025°22'0 0.0
2017-Sep-20 03:00N 37°06' E 025°22'0 0.0
2017-Sep-20 02:31N 37°06' E 025°22'0 0.0
2017-Sep-20 02:01N 37°06' E 025°22'0 0.0
2017-Sep-20 01:30N 37°06' E 025°22'0 0.0
2017-Sep-20 01:01N 37°06' E 025°22'0 0.0
2017-Sep-20 00:31N 37°06' E 025°22'0 0.0
2017-Sep-20 00:00N 37°06' E 025°22'0 0.0
2017-Sep-19 23:31N 37°06' E 025°22'0 0.0
2017-Sep-19 23:01N 37°06' E 025°22'0 0.0
2017-Sep-19 22:30N 37°06' E 025°22'0 0.0
2017-Sep-19 22:00N 37°06' E 025°22'0 0.0
2017-Sep-19 21:31N 37°06' E 025°22'0 0.0
2017-Sep-19 21:01N 37°06' E 025°22'0 0.0
2017-Sep-19 20:30N 37°06' E 025°22'0 0.0
2017-Sep-19 20:01N 37°06' E 025°22'0 0.0
2017-Sep-19 19:31N 37°06' E 025°22'0 0.0
2017-Sep-19 19:01N 37°06' E 025°22'0 0.0
2017-Sep-19 18:31N 37°06' E 025°22'0 0.0
2017-Sep-19 18:01N 37°06' E 025°22'0 0.0
2017-Sep-19 17:31N 37°06' E 025°22'0 0.0
2017-Sep-19 17:01N 37°06' E 025°22'510.2
2017-Sep-19 16:31N 37°03' E 025°18'4 0.4
2017-Sep-19 05:43N 36°59' E 025°16'312.5
2017-Sep-19 05:30N 37°02' E 025°16'714.1
2017-Sep-19 05:01N 37°06' E 025°22'0 0.0
2017-Sep-19 04:31N 37°06' E 025°22'0 0.0
2017-Sep-19 04:00N 37°06' E 025°22'0 0.0
2017-Sep-19 03:30N 37°06' E 025°22'0 0.0
2017-Sep-19 03:01N 37°06' E 025°22'0 0.0
2017-Sep-19 02:30N 37°06' E 025°22'0 0.0
2017-Sep-19 02:01N 37°06' E 025°22'0 0.0
2017-Sep-19 01:30N 37°06' E 025°22'0 0.0
2017-Sep-19 01:00N 37°06' E 025°22'0 0.0
2017-Sep-19 00:31N 37°06' E 025°22'0 0.0
2017-Sep-19 00:01N 37°06' E 025°22'0 0.0
2017-Sep-18 23:31N 37°06' E 025°22'0 0.0
2017-Sep-18 23:01N 37°06' E 025°22'0 0.0
2017-Sep-18 22:31N 37°06' E 025°22'0 0.0
2017-Sep-18 22:01N 37°06' E 025°22'0 0.0
2017-Sep-18 21:31N 37°06' E 025°22'0 0.0
2017-Sep-18 21:01N 37°06' E 025°22'0 0.0
2017-Sep-18 20:31N 37°06' E 025°22'0 0.0
2017-Sep-18 20:01N 37°06' E 025°22'0 0.0
2017-Sep-18 19:31N 37°06' E 025°22'0 0.0
2017-Sep-18 19:01N 37°06' E 025°22'0 0.0
2017-Sep-18 18:31N 37°06' E 025°22'0 0.0
2017-Sep-18 18:01N 37°06' E 025°22'0 0.0
2017-Sep-18 17:31N 37°06' E 025°22'0 0.0
2017-Sep-18 17:01N 37°06' E 025°22'0 0.0
2017-Sep-18 16:31N 37°06' E 025°22'0 0.0
2017-Sep-18 16:01N 37°06' E 025°22'612.0
2017-Sep-18 15:31N 37°09' E 025°16'1 2.3
2017-Sep-18 15:01N 37°10' E 025°15'917.7
2017-Sep-18 14:31N 37°19' E 025°16'917.1
2017-Sep-18 14:00N 37°27' E 025°19'0 0.2
2017-Sep-18 11:44N 37°27' E 025°20'0 0.0
2017-Sep-18 11:31N 37°27' E 025°20'0 0.0
2017-Sep-18 11:00N 37°27' E 025°20'4 8.7
2017-Sep-18 10:31N 37°24' E 025°16'0 0.0
2017-Sep-18 10:01N 37°24' E 025°16'0 0.0
2017-Sep-18 09:31N 37°24' E 025°16'0 0.0
2017-Sep-18 09:01N 37°24' E 025°16'1 2.1
2017-Sep-18 08:30N 37°25' E 025°16'2 3.4
2017-Sep-18 08:01N 37°26' E 025°18'4 8.4
2017-Sep-18 07:30N 37°22' E 025°16'918.4
2017-Sep-18 07:01N 37°13' E 025°15'510.6
2017-Sep-18 06:31N 37°08' E 025°14'713.4
2017-Sep-18 06:00N 37°06' E 025°22'0 0.0
2017-Sep-18 05:31N 37°06' E 025°22'0 0.0
2017-Sep-18 05:01N 37°06' E 025°22'0 0.0
2017-Sep-18 04:30N 37°06' E 025°22'0 0.0
2017-Sep-18 04:01N 37°06' E 025°22'0 0.0
2017-Sep-18 03:31N 37°06' E 025°22'0 0.0
2017-Sep-18 03:00N 37°06' E 025°22'0 0.0
2017-Sep-18 02:31N 37°06' E 025°22'0 0.0
2017-Sep-18 02:01N 37°06' E 025°22'0 0.0
2017-Sep-18 01:31N 37°06' E 025°22'0 0.0
2017-Sep-18 01:01N 37°06' E 025°22'0 0.0
2017-Sep-18 00:31N 37°06' E 025°22'0 0.0
2017-Sep-18 00:01N 37°06' E 025°22'0 0.0
2017-Sep-17 23:31N 37°06' E 025°22'0 0.0
2017-Sep-17 23:01N 37°06' E 025°22'0 0.0
2017-Sep-17 22:30N 37°06' E 025°22'0 0.0
2017-Sep-17 22:00N 37°06' E 025°22'0 0.0
2017-Sep-17 21:31N 37°06' E 025°22'0 0.0
2017-Sep-17 21:01N 37°06' E 025°22'0 0.0
2017-Sep-17 20:31N 37°06' E 025°22'0 0.0
2017-Sep-17 20:01N 37°06' E 025°22'0 0.0
2017-Sep-17 19:31N 37°06' E 025°22'0 0.0
2017-Sep-17 19:01N 37°06' E 025°22'0 0.0
2017-Sep-17 18:31N 37°06' E 025°22'0 0.0
2017-Sep-17 18:01N 37°06' E 025°22'0 0.0
2017-Sep-17 17:31N 37°06' E 025°22'0 0.0
2017-Sep-17 17:01N 37°06' E 025°22'0 0.0
2017-Sep-17 16:31N 37°06' E 025°22'0 0.0
2017-Sep-17 16:01N 37°06' E 025°22'0 0.0
2017-Sep-17 15:31N 37°06' E 025°22'0 0.0
2017-Sep-17 15:01N 37°06' E 025°22'0 0.0
2017-Sep-17 14:31N 37°06' E 025°22'0 0.0
2017-Sep-17 14:01N 37°06' E 025°22'0 0.0
2017-Sep-17 13:31N 37°06' E 025°22'0 0.0
2017-Sep-17 13:01N 37°06' E 025°22'0 0.0
2017-Sep-17 12:31N 37°06' E 025°22'0 0.0
2017-Sep-17 12:01N 37°06' E 025°22'0 0.0
2017-Sep-17 11:31N 37°06' E 025°22'0 0.0
2017-Sep-17 11:01N 37°06' E 025°22'0 0.0
2017-Sep-17 10:31N 37°06' E 025°22'0 0.0
2017-Sep-17 10:01N 37°06' E 025°22'0 0.0
2017-Sep-17 09:31N 37°06' E 025°22'0 0.0
2017-Sep-17 09:01N 37°06' E 025°22'0 0.0
2017-Sep-17 08:31N 37°06' E 025°22'0 0.0
2017-Sep-17 08:01N 37°06' E 025°22'0 0.0
2017-Sep-17 07:31N 37°06' E 025°22'0 0.0
2017-Sep-17 07:01N 37°06' E 025°22'0 0.0
2017-Sep-17 06:31N 37°06' E 025°22'0 0.0
2017-Sep-17 06:01N 37°06' E 025°22'0 0.0
2017-Sep-17 05:31N 37°06' E 025°22'0 0.0
2017-Sep-17 05:01N 37°06' E 025°22'0 0.0
2017-Sep-17 04:31N 37°06' E 025°22'0 0.0
2017-Sep-17 04:01N 37°06' E 025°22'0 0.0
2017-Sep-17 03:30N 37°06' E 025°22'0 0.0
2017-Sep-17 03:01N 37°06' E 025°22'0 0.0
2017-Sep-17 02:31N 37°06' E 025°22'0 0.0
2017-Sep-17 02:01N 37°06' E 025°22'0 0.0
2017-Sep-17 01:31N 37°06' E 025°22'0 0.0
2017-Sep-17 01:01N 37°06' E 025°22'0 0.0
2017-Sep-17 00:31N 37°06' E 025°22'0 0.0
2017-Sep-17 00:01N 37°06' E 025°22'0 0.0
2017-Sep-16 23:31N 37°06' E 025°22'0 0.0
2017-Sep-16 23:01N 37°06' E 025°22'0 0.0
2017-Sep-16 22:31N 37°06' E 025°22'0 0.0
2017-Sep-16 22:01N 37°06' E 025°22'  
Track history (hours):
 
Tides and Currents Weather Stations Pressure Air Temp Water Temp Dewpoint Dewpoint Depression Visibility Wind Speed Wind Dir Waves Ship Positions

Alexander

Last reported at 2017-Sep-26 22:01 UTC. Time now 2017-Sep-26 22:04 UTC.
Position N 37°06' E 025°22'.

Length 40 m; draft 2.4 m.

Type: Passenger vessel. MMSI: 237133300.

Date/timePositionNaut miles runAvg speedWind from/ knotsBaromVisibWave heightAir tempDewpointWater temp
2017-Sep-26 22:01N 37°06' E 025°22'0 0.0
2017-Sep-26 21:31N 37°06' E 025°22'0 0.0
2017-Sep-26 21:00N 37°06' E 025°22'0 0.0
2017-Sep-26 20:31N 37°06' E 025°22'0 0.0
2017-Sep-26 20:00N 37°06' E 025°22'0 0.0
2017-Sep-26 19:31N 37°06' E 025°22'0 0.0
2017-Sep-26 19:01N 37°06' E 025°22'0 0.0
2017-Sep-26 18:31N 37°06' E 025°22'0 0.0
2017-Sep-26 18:01N 37°06' E 025°22'0 0.0
2017-Sep-26 17:30N 37°06' E 025°22'0 0.0
2017-Sep-26 17:01N 37°06' E 025°22'4 7.1
2017-Sep-26 16:30N 37°04' E 025°19'5 0.5
2017-Sep-26 05:41N 36°59' E 025°16'315.1
2017-Sep-26 05:31N 37°02' E 025°16'714.0
2017-Sep-26 05:01N 37°06' E 025°22'0 0.0
2017-Sep-26 04:31N 37°06' E 025°22'0 0.0
2017-Sep-26 04:01N 37°06' E 025°22'0 0.0
2017-Sep-26 03:31N 37°06' E 025°22'0 0.0
2017-Sep-26 03:01N 37°06' E 025°22'0 0.0
2017-Sep-26 02:31N 37°06' E 025°22'0 0.0
2017-Sep-26 02:01N 37°06' E 025°22'0 0.0
2017-Sep-26 01:31N 37°06' E 025°22'0 0.0
2017-Sep-26 01:01N 37°06' E 025°22'0 0.0
2017-Sep-26 00:31N 37°06' E 025°22'0 0.0
2017-Sep-26 00:01N 37°06' E 025°22'0 0.0
2017-Sep-25 23:31N 37°06' E 025°22'0 0.0
2017-Sep-25 23:01N 37°06' E 025°22'0 0.0
2017-Sep-25 22:31N 37°06' E 025°22'0 0.0
2017-Sep-25 22:01N 37°06' E 025°22'0 0.0
2017-Sep-25 21:31N 37°06' E 025°22'0 0.0
2017-Sep-25 21:01N 37°06' E 025°22'0 0.0
2017-Sep-25 20:31N 37°06' E 025°22'0 0.0
2017-Sep-25 20:01N 37°06' E 025°22'0 0.0
2017-Sep-25 19:31N 37°06' E 025°22'0 0.0
2017-Sep-25 19:01N 37°06' E 025°22'0 0.0
2017-Sep-25 18:31N 37°06' E 025°22'0 0.0
2017-Sep-25 18:01N 37°06' E 025°22'0 0.0
2017-Sep-25 17:31N 37°06' E 025°22'0 0.0
2017-Sep-25 17:01N 37°06' E 025°22'0 0.0
2017-Sep-25 16:31N 37°06' E 025°22'0 0.0
2017-Sep-25 16:01N 37°06' E 025°22'510.0
2017-Sep-25 15:31N 37°09' E 025°17'2 4.6
2017-Sep-25 15:01N 37°10' E 025°15'917.6
2017-Sep-25 14:31N 37°19' E 025°16'917.1
2017-Sep-25 14:01N 37°27' E 025°19'0 0.8
2017-Sep-25 13:30N 37°27' E 025°20'0 0.0
2017-Sep-25 13:01N 37°27' E 025°20'0 0.0
2017-Sep-25 12:31N 37°27' E 025°20'0 0.0
2017-Sep-25 12:01N 37°27' E 025°20'0 0.0
2017-Sep-25 11:30N 37°27' E 025°20'0 0.0
2017-Sep-25 11:01N 37°27' E 025°20'4 8.7
2017-Sep-25 10:31N 37°24' E 025°16'0 0.0
2017-Sep-25 10:01N 37°24' E 025°16'0 0.0
2017-Sep-25 09:30N 37°24' E 025°16'0 0.0
2017-Sep-25 09:01N 37°24' E 025°16'1 1.0
2017-Sep-25 08:31N 37°24' E 025°16'3 6.8
2017-Sep-25 08:01N 37°27' E 025°19'611.4
2017-Sep-25 07:31N 37°22' E 025°15'918.6
2017-Sep-25 07:00N 37°12' E 025°15'5 9.0
2017-Sep-25 06:31N 37°08' E 025°14'713.2
2017-Sep-25 06:01N 37°06' E 025°22'0 0.0
2017-Sep-25 05:31N 37°06' E 025°22'0 0.0
2017-Sep-25 05:01N 37°06' E 025°22'0 0.0
2017-Sep-25 04:31N 37°06' E 025°22'0 0.0
2017-Sep-25 04:01N 37°06' E 025°22'0 0.0
2017-Sep-25 03:31N 37°06' E 025°22'0 0.0
2017-Sep-25 03:01N 37°06' E 025°22'0 0.0
2017-Sep-25 02:31N 37°06' E 025°22'0 0.0
2017-Sep-25 02:01N 37°06' E 025°22'0 0.0
2017-Sep-25 01:31N 37°06' E 025°22'0 0.0
2017-Sep-25 01:01N 37°06' E 025°22'0 0.0
2017-Sep-25 00:31N 37°06' E 025°22'0 0.0
2017-Sep-25 00:01N 37°06' E 025°22'0 0.0
2017-Sep-24 23:31N 37°06' E 025°22'0 0.0
2017-Sep-24 23:01N 37°06' E 025°22'0 0.0
2017-Sep-24 22:27N 37°06' E 025°22'0 0.0
2017-Sep-24 22:01N 37°06' E 025°22'0 0.0
2017-Sep-24 21:31N 37°06' E 025°22'0 0.0
2017-Sep-24 21:01N 37°06' E 025°22'0 0.0
2017-Sep-24 20:31N 37°06' E 025°22'0 0.0
2017-Sep-24 20:01N 37°06' E 025°22'0 0.0
2017-Sep-24 19:31N 37°06' E 025°22'0 0.0
2017-Sep-24 19:01N 37°06' E 025°22'0 0.0
2017-Sep-24 18:31N 37°06' E 025°22'0 0.0
2017-Sep-24 18:01N 37°06' E 025°22'0 0.0
2017-Sep-24 17:31N 37°06' E 025°22'0 0.0
2017-Sep-24 17:01N 37°06' E 025°22'0 0.0
2017-Sep-24 16:31N 37°06' E 025°22'0 0.0
2017-Sep-24 16:01N 37°06' E 025°22'0 0.0
2017-Sep-24 15:31N 37°06' E 025°22'0 0.0
2017-Sep-24 15:01N 37°06' E 025°22'0 0.0
2017-Sep-24 14:30N 37°06' E 025°22'0 0.0
2017-Sep-24 14:01N 37°06' E 025°22'0 0.0
2017-Sep-24 13:30N 37°06' E 025°22'0 0.0
2017-Sep-24 13:01N 37°06' E 025°22'0 0.0
2017-Sep-24 12:31N 37°06' E 025°22'0 0.0
2017-Sep-24 12:01N 37°06' E 025°22'0 0.0
2017-Sep-24 11:31N 37°06' E 025°22'0 0.0
2017-Sep-24 11:01N 37°06' E 025°22'0 0.0
2017-Sep-24 10:31N 37°06' E 025°22'0 0.0
2017-Sep-24 09:13N 37°06' E 025°22'0 0.0
2017-Sep-24 09:01N 37°06' E 025°22'0 0.0
2017-Sep-24 08:31N 37°06' E 025°22'0 0.0
2017-Sep-24 08:01N 37°06' E 025°22'0 0.0
2017-Sep-24 07:31N 37°06' E 025°22'0 0.0
2017-Sep-24 07:01N 37°06' E 025°22'0 0.0
2017-Sep-24 06:31N 37°06' E 025°22'0 0.0
2017-Sep-24 06:01N 37°06' E 025°22'0 0.0
2017-Sep-24 05:31N 37°06' E 025°22'0 0.0
2017-Sep-24 05:00N 37°06' E 025°22'0 0.0
2017-Sep-24 04:31N 37°06' E 025°22'0 0.0
2017-Sep-24 04:01N 37°06' E 025°22'0 0.0
2017-Sep-24 03:31N 37°06' E 025°22'0 0.0
2017-Sep-24 03:01N 37°06' E 025°22'0 0.0
2017-Sep-24 02:31N 37°06' E 025°22'0 0.0
2017-Sep-24 02:01N 37°06' E 025°22'0 0.0
2017-Sep-24 01:31N 37°06' E 025°22'0 0.0
2017-Sep-24 01:01N 37°06' E 025°22'0 0.0
2017-Sep-24 00:31N 37°06' E 025°22'0 0.0
2017-Sep-24 00:01N 37°06' E 025°22'0 0.0
2017-Sep-23 23:31N 37°06' E 025°22'0 0.0
2017-Sep-23 23:01N 37°06' E 025°22'0 0.0
2017-Sep-23 22:31N 37°06' E 025°22'0 0.0
2017-Sep-23 22:01N 37°06' E 025°22'0 0.0
2017-Sep-23 21:31N 37°06' E 025°22'0 0.0
2017-Sep-23 21:01N 37°06' E 025°22'0 0.0
2017-Sep-23 20:31N 37°06' E 025°22'0 0.0
2017-Sep-23 20:01N 37°06' E 025°22'0 0.0
2017-Sep-22 02:01N 37°06' E 025°22'0 0.0
2017-Sep-22 01:31N 37°06' E 025°22'0 0.0
2017-Sep-22 01:01N 37°06' E 025°22'0 0.0
2017-Sep-22 00:31N 37°06' E 025°22'0 0.0
2017-Sep-22 00:01N 37°06' E 025°22'0 0.0
2017-Sep-21 23:31N 37°06' E 025°22'0 0.0
2017-Sep-21 23:01N 37°06' E 025°22'0 0.0
2017-Sep-21 22:31N 37°06' E 025°22'0 0.0
2017-Sep-21 22:01N 37°06' E 025°22'0 0.0
2017-Sep-21 21:31N 37°06' E 025°22'0 0.0
2017-Sep-21 21:00N 37°06' E 025°22'0 0.0
2017-Sep-21 20:31N 37°06' E 025°22'0 0.0
2017-Sep-21 20:01N 37°06' E 025°22'0 0.0
2017-Sep-21 19:31N 37°06' E 025°22'0 0.0
2017-Sep-21 19:01N 37°06' E 025°22'0 0.0
2017-Sep-21 18:31N 37°06' E 025°22'0 0.0
2017-Sep-21 18:00N 37°06' E 025°22'0 0.0
2017-Sep-21 17:31N 37°06' E 025°22'0 0.0
2017-Sep-21 17:01N 37°06' E 025°22'0 0.0
2017-Sep-21 16:31N 37°06' E 025°22'0 0.0
2017-Sep-21 16:01N 37°06' E 025°22'0 0.0
2017-Sep-21 15:31N 37°06' E 025°22'0 0.0
2017-Sep-21 15:01N 37°06' E 025°22'0 0.0
2017-Sep-21 14:31N 37°06' E 025°22'0 0.0
2017-Sep-21 14:01N 37°06' E 025°22'0 0.0
2017-Sep-21 13:31N 37°06' E 025°22'0 0.0
2017-Sep-21 13:01N 37°06' E 025°22'0 0.0
2017-Sep-21 12:31N 37°06' E 025°22'0 0.0
2017-Sep-21 12:00N 37°06' E 025°22'0 0.0
2017-Sep-21 11:31N 37°06' E 025°22'0 0.0
2017-Sep-21 11:01N 37°06' E 025°22'0 0.0
2017-Sep-21 10:31N 37°06' E 025°22'0 0.0
2017-Sep-21 10:01N 37°06' E 025°22'0 0.0
2017-Sep-21 09:31N 37°06' E 025°22'0 0.0
2017-Sep-21 09:01N 37°06' E 025°22'0 0.0
2017-Sep-21 08:31N 37°06' E 025°22'0 0.0
2017-Sep-21 08:01N 37°06' E 025°22'0 0.0
2017-Sep-21 07:30N 37°06' E 025°22'0 0.0
2017-Sep-21 07:01N 37°06' E 025°22'0 0.0
2017-Sep-21 06:31N 37°06' E 025°22'0 0.0
2017-Sep-21 06:01N 37°06' E 025°22'0 0.0
2017-Sep-21 05:31N 37°06' E 025°22'0 0.0
2017-Sep-21 05:01N 37°06' E 025°22'0 0.0
2017-Sep-21 04:31N 37°06' E 025°22'0 0.0
2017-Sep-21 04:01N 37°06' E 025°22'0 0.0
2017-Sep-21 03:31N 37°06' E 025°22'0 0.0
2017-Sep-21 03:01N 37°06' E 025°22'0 0.0
2017-Sep-21 02:31N 37°06' E 025°22'0 0.0
2017-Sep-21 02:01N 37°06' E 025°22'0 0.0
2017-Sep-21 01:31N 37°06' E 025°22'0 0.0
2017-Sep-21 01:01N 37°06' E 025°22'0 0.0
2017-Sep-21 00:31N 37°06' E 025°22'0 0.0
2017-Sep-21 00:01N 37°06' E 025°22'0 0.0
2017-Sep-20 23:31N 37°06' E 025°22'0 0.0
2017-Sep-20 23:00N 37°06' E 025°22'0 0.0
2017-Sep-20 22:31N 37°06' E 025°22'0 0.0
2017-Sep-20 22:01N 37°06' E 025°22'0 0.0
2017-Sep-20 21:31N 37°06' E 025°22'0 0.0
2017-Sep-20 21:01N 37°06' E 025°22'0 0.0
2017-Sep-20 20:31N 37°06' E 025°22'0 0.0
2017-Sep-20 20:01N 37°06' E 025°22'0 0.0
2017-Sep-20 19:31N 37°06' E 025°22'0 0.0
2017-Sep-20 19:01N 37°06' E 025°22'0 0.0
2017-Sep-20 18:31N 37°06' E 025°22'0 0.0
2017-Sep-20 18:01N 37°06' E 025°22'0 0.0
2017-Sep-20 17:31N 37°06' E 025°22'0 0.0
2017-Sep-20 17:01N 37°06' E 025°22'0 0.0
2017-Sep-20 16:31N 37°06' E 025°22'0 0.0
2017-Sep-20 16:01N 37°06' E 025°22'5 9.5
2017-Sep-20 15:31N 37°09' E 025°18'2 5.0
2017-Sep-20 15:00N 37°09' E 025°15'18 6.0
2017-Sep-20 11:59N 37°27' E 025°20'0 0.0
2017-Sep-20 11:30N 37°27' E 025°20'0 0.0
2017-Sep-20 11:00N 37°27' E 025°20'4 8.7
2017-Sep-20 10:31N 37°24' E 025°16'0 0.0
2017-Sep-20 10:01N 37°24' E 025°16'0 0.2
2017-Sep-20 09:31N 37°24' E 025°16'4 8.7
2017-Sep-20 09:00N 37°27' E 025°20'0 0.1
2017-Sep-20 08:30N 37°27' E 025°20'2 4.7
2017-Sep-20 08:01N 37°26' E 025°17'4 8.7
2017-Sep-20 07:31N 37°22' E 025°16'918.2
2017-Sep-20 07:01N 37°12' E 025°15'4 8.3
2017-Sep-20 06:30N 37°08' E 025°15'613.0
2017-Sep-20 06:01N 37°06' E 025°22'0 0.0
2017-Sep-20 05:30N 37°06' E 025°22'0 0.0
2017-Sep-20 05:01N 37°06' E 025°22'0 0.0
2017-Sep-20 04:31N 37°06' E 025°22'0 0.0
2017-Sep-20 04:01N 37°06' E 025°22'0 0.0
2017-Sep-20 03:31N 37°06' E 025°22'0 0.0
2017-Sep-20 03:00N 37°06' E 025°22'0 0.0
2017-Sep-20 02:31N 37°06' E 025°22'0 0.0
2017-Sep-20 02:01N 37°06' E 025°22'0 0.0
2017-Sep-20 01:30N 37°06' E 025°22'0 0.0
2017-Sep-20 01:01N 37°06' E 025°22'0 0.0
2017-Sep-20 00:31N 37°06' E 025°22'0 0.0
2017-Sep-20 00:00N 37°06' E 025°22'0 0.0
2017-Sep-19 23:31N 37°06' E 025°22'0 0.0
2017-Sep-19 23:01N 37°06' E 025°22'0 0.0
2017-Sep-19 22:30N 37°06' E 025°22'0 0.0
2017-Sep-19 22:00N 37°06' E 025°22'0 0.0
2017-Sep-19 21:31N 37°06' E 025°22'0 0.0
2017-Sep-19 21:01N 37°06' E 025°22'0 0.0
2017-Sep-19 20:30N 37°06' E 025°22'0 0.0
2017-Sep-19 20:01N 37°06' E 025°22'0 0.0
2017-Sep-19 19:31N 37°06' E 025°22'0 0.0
2017-Sep-19 19:01N 37°06' E 025°22'0 0.0
2017-Sep-19 18:31N 37°06' E 025°22'0 0.0
2017-Sep-19 18:01N 37°06' E 025°22'0 0.0
2017-Sep-19 17:31N 37°06' E 025°22'0 0.0
2017-Sep-19 17:01N 37°06' E 025°22'510.2
2017-Sep-19 16:31N 37°03' E 025°18'4 0.4
2017-Sep-19 05:43N 36°59' E 025°16'312.5
2017-Sep-19 05:30N 37°02' E 025°16'714.1
2017-Sep-19 05:01N 37°06' E 025°22'0 0.0
2017-Sep-19 04:31N 37°06' E 025°22'0 0.0
2017-Sep-19 04:00N 37°06' E 025°22'0 0.0
2017-Sep-19 03:30N 37°06' E 025°22'0 0.0
2017-Sep-19 03:01N 37°06' E 025°22'0 0.0
2017-Sep-19 02:30N 37°06' E 025°22'0 0.0
2017-Sep-19 02:01N 37°06' E 025°22'0 0.0
2017-Sep-19 01:30N 37°06' E 025°22'0 0.0
2017-Sep-19 01:00N 37°06' E 025°22'0 0.0
2017-Sep-19 00:31N 37°06' E 025°22'0 0.0
2017-Sep-19 00:01N 37°06' E 025°22'0 0.0
2017-Sep-18 23:31N 37°06' E 025°22'0 0.0
2017-Sep-18 23:01N 37°06' E 025°22'0 0.0
2017-Sep-18 22:31N 37°06' E 025°22'0 0.0
2017-Sep-18 22:01N 37°06' E 025°22'0 0.0
2017-Sep-18 21:31N 37°06' E 025°22'0 0.0
2017-Sep-18 21:01N 37°06' E 025°22'0 0.0
2017-Sep-18 20:31N 37°06' E 025°22'0 0.0
2017-Sep-18 20:01N 37°06' E 025°22'0 0.0
2017-Sep-18 19:31N 37°06' E 025°22'0 0.0
2017-Sep-18 19:01N 37°06' E 025°22'0 0.0
2017-Sep-18 18:31N 37°06' E 025°22'0 0.0
2017-Sep-18 18:01N 37°06' E 025°22'0 0.0
2017-Sep-18 17:31N 37°06' E 025°22'0 0.0
2017-Sep-18 17:01N 37°06' E 025°22'0 0.0
2017-Sep-18 16:31N 37°06' E 025°22'0 0.0
2017-Sep-18 16:01N 37°06' E 025°22'612.0
2017-Sep-18 15:31N 37°09' E 025°16'1 2.3
2017-Sep-18 15:01N 37°10' E 025°15'917.7
2017-Sep-18 14:31N 37°19' E 025°16'917.1
2017-Sep-18 14:00N 37°27' E 025°19'0 0.2
2017-Sep-18 11:44N 37°27' E 025°20'0 0.0
2017-Sep-18 11:31N 37°27' E 025°20'0 0.0
2017-Sep-18 11:00N 37°27' E 025°20'4 8.7
2017-Sep-18 10:31N 37°24' E 025°16'0 0.0
2017-Sep-18 10:01N 37°24' E 025°16'0 0.0
2017-Sep-18 09:31N 37°24' E 025°16'0 0.0
2017-Sep-18 09:01N 37°24' E 025°16'1 2.1
2017-Sep-18 08:30N 37°25' E 025°16'2 3.4
2017-Sep-18 08:01N 37°26' E 025°18'4 8.4
2017-Sep-18 07:30N 37°22' E 025°16'918.4
2017-Sep-18 07:01N 37°13' E 025°15'510.6
2017-Sep-18 06:31N 37°08' E 025°14'713.4
2017-Sep-18 06:00N 37°06' E 025°22'0 0.0
2017-Sep-18 05:31N 37°06' E 025°22'0 0.0
2017-Sep-18 05:01N 37°06' E 025°22'0 0.0
2017-Sep-18 04:30N 37°06' E 025°22'0 0.0
2017-Sep-18 04:01N 37°06' E 025°22'0 0.0
2017-Sep-18 03:31N 37°06' E 025°22'0 0.0
2017-Sep-18 03:00N 37°06' E 025°22'0 0.0
2017-Sep-18 02:31N 37°06' E 025°22'0 0.0
2017-Sep-18 02:01N 37°06' E 025°22'0 0.0
2017-Sep-18 01:31N 37°06' E 025°22'0 0.0
2017-Sep-18 01:01N 37°06' E 025°22'0 0.0
2017-Sep-18 00:31N 37°06' E 025°22'0 0.0
2017-Sep-18 00:01N 37°06' E 025°22'0 0.0
2017-Sep-17 23:31N 37°06' E 025°22'0 0.0
2017-Sep-17 23:01N 37°06' E 025°22'0 0.0
2017-Sep-17 22:30N 37°06' E 025°22'0 0.0
2017-Sep-17 22:00N 37°06' E 025°22'0 0.0
2017-Sep-17 21:31N 37°06' E 025°22'0 0.0
2017-Sep-17 21:01N 37°06' E 025°22'0 0.0
2017-Sep-17 20:31N 37°06' E 025°22'0 0.0
2017-Sep-17 20:01N 37°06' E 025°22'0 0.0
2017-Sep-17 19:31N 37°06' E 025°22'0 0.0
2017-Sep-17 19:01N 37°06' E 025°22'0 0.0
2017-Sep-17 18:31N 37°06' E 025°22'0 0.0
2017-Sep-17 18:01N 37°06' E 025°22'0 0.0
2017-Sep-17 17:31N 37°06' E 025°22'0 0.0
2017-Sep-17 17:01N 37°06' E 025°22'0 0.0
2017-Sep-17 16:31N 37°06' E 025°22'0 0.0
2017-Sep-17 16:01N 37°06' E 025°22'0 0.0
2017-Sep-17 15:31N 37°06' E 025°22'0 0.0
2017-Sep-17 15:01N 37°06' E 025°22'0 0.0
2017-Sep-17 14:31N 37°06' E 025°22'0 0.0
2017-Sep-17 14:01N 37°06' E 025°22'0 0.0
2017-Sep-17 13:31N 37°06' E 025°22'0 0.0
2017-Sep-17 13:01N 37°06' E 025°22'0 0.0
2017-Sep-17 12:31N 37°06' E 025°22'0 0.0
2017-Sep-17 12:01N 37°06' E 025°22'0 0.0
2017-Sep-17 11:31N 37°06' E 025°22'0 0.0
2017-Sep-17 11:01N 37°06' E 025°22'0 0.0
2017-Sep-17 10:31N 37°06' E 025°22'0 0.0
2017-Sep-17 10:01N 37°06' E 025°22'0 0.0
2017-Sep-17 09:31N 37°06' E 025°22'0 0.0
2017-Sep-17 09:01N 37°06' E 025°22'0 0.0
2017-Sep-17 08:31N 37°06' E 025°22'0 0.0
2017-Sep-17 08:01N 37°06' E 025°22'0 0.0
2017-Sep-17 07:31N 37°06' E 025°22'0 0.0
2017-Sep-17 07:01N 37°06' E 025°22'0 0.0
2017-Sep-17 06:31N 37°06' E 025°22'0 0.0
2017-Sep-17 06:01N 37°06' E 025°22'0 0.0
2017-Sep-17 05:31N 37°06' E 025°22'0 0.0
2017-Sep-17 05:01N 37°06' E 025°22'0 0.0
2017-Sep-17 04:31N 37°06' E 025°22'0 0.0
2017-Sep-17 04:01N 37°06' E 025°22'0 0.0
2017-Sep-17 03:30N 37°06' E 025°22'0 0.0
2017-Sep-17 03:01N 37°06' E 025°22'0 0.0
2017-Sep-17 02:31N 37°06' E 025°22'0 0.0
2017-Sep-17 02:01N 37°06' E 025°22'0 0.0
2017-Sep-17 01:31N 37°06' E 025°22'0 0.0
2017-Sep-17 01:01N 37°06' E 025°22'0 0.0
2017-Sep-17 00:31N 37°06' E 025°22'0 0.0
2017-Sep-17 00:01N 37°06' E 025°22'0 0.0
2017-Sep-16 23:31N 37°06' E 025°22'0 0.0
2017-Sep-16 23:01N 37°06' E 025°22'0 0.0
2017-Sep-16 22:31N 37°06' E 025°22'0 0.0
2017-Sep-16 22:01N 37°06' E 025°22'  

Dump ship's entire track history